Time;durP1;ratioP1;P1;durP2;ratioP2;P2;SDS_P1;SDS_P2;PMS_P1;PMS_P2;Temp;Humidity;BMP_temperature;BMP_pressure;BME280_temperature;BME280_humidity;BME280_pressure;Samples;Min_cycle;Max_cycle;Signal;HPM_P1;HPM_P2
2022/01/04 00:02:49;;;;;;;17.25;5.03;;;;;;;5.62;100.00;99458.00;5129464;57;1136962;-74
2022/01/04 00:07:55;;;;;;;13.73;4.70;;;;;;;5.62;100.00;99450.13;5129706;57;1136997;-73
2022/01/04 00:18:25;;;;;;;22.15;5.33;;;;;;;5.60;100.00;99438.08;5204257;56;1137058;-73
2022/01/04 00:23:31;;;;;;;17.40;5.63;;;;;;;5.58;100.00;99439.50;5203998;56;1137017;-74
2022/01/04 00:28:37;;;;;;;12.83;3.60;;;;;;;5.56;100.00;99440.08;5203703;56;1137110;-73
2022/01/04 00:33:43;;;;;;;12.07;4.27;;;;;;;5.55;100.00;99437.09;5203762;56;1137281;-74
2022/01/04 00:38:49;;;;;;;10.60;3.90;;;;;;;5.55;100.00;99428.39;5203766;56;1137196;-74
2022/01/04 00:43:54;;;;;;;14.13;4.00;;;;;;;5.56;100.00;99408.61;5203550;56;1137304;-73
2022/01/04 00:49:12;;;;;;;12.33;4.40;;;;;;;5.61;100.00;99418.30;5204470;56;1136999;-73
2022/01/04 00:54:19;;;;;;;17.20;4.90;;;;;;;5.61;100.00;99406.97;5204865;56;1136887;-73
2022/01/04 00:59:25;;;;;;;11.08;3.65;;;;;;;5.61;100.00;99401.25;5204841;56;1136979;-74
2022/01/04 01:04:31;;;;;;;18.40;3.77;;;;;;;5.56;100.00;99391.56;5205793;56;1134907;-74
2022/01/04 01:09:46;;;;;;;10.10;3.43;;;;;;;5.52;100.00;99384.87;5169020;56;1134819;-73
2022/01/04 01:14:44;;;;;;;15.70;4.07;;;;;;;5.50;100.00;99379.41;5092093;57;1139008;-74
2022/01/04 01:19:50;;;;;;;9.30;3.47;;;;;;;5.47;100.00;99380.47;5133815;57;1139248;-73
2022/01/04 01:24:56;;;;;;;9.28;3.92;;;;;;;5.48;100.00;99370.81;5133658;57;1136888;-73
2022/01/04 01:30:04;;;;;;;7.77;3.27;;;;;;;5.51;100.00;99371.39;5133229;57;1136892;-73
2022/01/04 01:35:10;;;;;;;12.27;3.37;;;;;;;5.55;100.00;99357.11;5131954;57;1136904;-73
2022/01/04 01:40:15;;;;;;;5.43;2.37;;;;;;;5.56;100.00;99354.02;5131923;57;1139097;-73
2022/01/04 01:45:22;;;;;;;10.33;4.03;;;;;;;5.56;100.00;99356.63;5132923;57;1137184;-73
2022/01/04 01:50:28;;;;;;;7.17;2.80;;;;;;;5.55;100.00;99344.00;5133416;57;1139039;-73
2022/01/04 01:55:34;;;;;;;9.00;3.07;;;;;;;5.57;100.00;99343.41;5133366;57;1136916;-73
2022/01/04 02:00:41;;;;;;;9.70;3.13;;;;;;;5.56;100.00;99340.90;5133200;57;1136943;-73
2022/01/04 02:05:48;;;;;;;9.73;3.10;;;;;;;5.52;100.00;99341.60;5133211;57;1137131;-73
2022/01/04 02:10:59;;;;;;;8.00;3.17;;;;;;;5.51;100.00;99349.58;5175959;56;1136989;-73
2022/01/04 02:16:07;;;;;;;9.27;2.50;;;;;;;5.50;100.00;99340.07;5216649;56;1137226;-73
2022/01/04 02:21:13;;;;;;;10.27;2.67;;;;;;;5.47;100.00;99331.95;5216382;56;1136950;-73
2022/01/04 02:26:20;;;;;;;4.43;2.10;;;;;;;5.45;100.00;99330.39;5216585;56;1139043;-73
2022/01/04 02:31:26;;;;;;;6.33;2.50;;;;;;;5.43;100.00;99325.27;5216621;56;1136898;-73
2022/01/04 02:36:32;;;;;;;4.07;1.87;;;;;;;5.41;100.00;99323.70;5216685;56;1136996;-73
2022/01/04 02:41:39;;;;;;;7.80;2.97;;;;;;;5.36;100.00;99316.17;5216702;56;1136978;-74
2022/01/04 02:46:45;;;;;;;10.27;2.97;;;;;;;5.33;100.00;99303.32;5216888;56;1137018;-73
2022/01/04 02:51:51;;;;;;;8.50;2.87;;;;;;;5.31;100.00;99299.97;5216762;56;1138993;-73
2022/01/04 02:56:57;;;;;;;9.50;2.87;;;;;;;5.30;100.00;99299.14;5216706;56;1137021;-73
2022/01/04 03:02:02;;;;;;;10.00;3.13;;;;;;;5.30;100.00;99285.20;5216440;56;1136893;-73
2022/01/04 03:07:08;;;;;;;14.97;5.77;;;;;;;5.31;100.00;99280.31;5216601;56;1139291;-73
2022/01/04 03:12:15;;;;;;;5.50;2.40;;;;;;;5.33;100.00;99279.73;5150042;56;1138975;-73
2022/01/04 03:17:20;;;;;;;7.47;2.67;;;;;;;5.34;100.00;99274.01;5130931;57;1137236;-73
2022/01/04 03:22:27;;;;;;;6.97;2.60;;;;;;;5.30;100.00;99271.61;5130947;57;1137014;-73
2022/01/04 03:27:33;;;;;;;9.57;2.60;;;;;;;5.27;100.00;99267.91;5131024;57;1137204;-73
2022/01/04 03:32:38;;;;;;;8.20;3.50;;;;;;;5.28;100.00;99263.02;5131779;57;1136889;-73
2022/01/04 03:37:45;;;;;;;6.70;2.10;;;;;;;5.29;100.00;99253.37;5131877;57;1136874;-73
2022/01/04 03:42:51;;;;;;;6.87;2.73;;;;;;;5.27;100.00;99239.55;5131902;57;1136932;-73
2022/01/04 03:47:56;;;;;;;7.73;2.40;;;;;;;5.31;100.00;99233.13;5131924;57;1136941;-73
2022/01/04 03:53:02;;;;;;;4.35;2.30;;;;;;;5.33;100.00;99234.33;5131810;57;1137100;-74
2022/01/04 03:58:09;;;;;;;4.67;2.37;;;;;;;5.35;100.00;99218.00;5131974;57;1136890;-73
2022/01/04 04:03:15;;;;;;;5.80;3.83;;;;;;;5.35;100.00;99218.00;5131984;57;1136903;-74
2022/01/04 04:08:21;;;;;;;7.73;3.03;;;;;;;5.36;100.00;99226.20;5131487;57;1136917;-74
2022/01/04 04:13:27;;;;;;;2.70;2.07;;;;;;;5.37;100.00;99220.00;5048513;57;1137089;-74
2022/01/04 04:18:33;;;;;;;4.20;2.30;;;;;;;5.39;100.00;99203.20;5010259;58;1137146;-73
2022/01/04 04:23:39;;;;;;;3.20;1.93;;;;;;;5.41;100.00;99208.34;5048255;58;1136957;-73
2022/01/04 04:28:45;;;;;;;5.70;2.43;;;;;;;5.40;100.00;99201.42;5047382;58;1135095;-73
2022/01/04 04:33:51;;;;;;;3.83;2.17;;;;;;;5.40;100.00;99197.02;5046986;57;1134915;-73
2022/01/04 04:38:57;;;;;;;5.00;2.37;;;;;;;5.40;100.00;99190.94;5058454;57;1134891;-73
2022/01/04 04:44:03;;;;;;;8.63;2.47;;;;;;;5.39;100.00;99173.53;5059087;57;1134855;-73
2022/01/04 04:49:09;;;;;;;7.90;3.05;;;;;;;5.37;100.00;99165.78;5058319;57;1134807;-73
2022/01/04 04:54:15;;;;;;;9.77;2.77;;;;;;;5.37;100.00;99166.27;5058525;57;1134887;-74
2022/01/04 04:59:21;;;;;;;9.20;2.57;;;;;;;5.38;100.00;99167.94;5058394;58;1134722;-85
2022/01/04 05:04:26;;;;;;;5.80;2.73;;;;;;;5.38;100.00;99160.91;5058691;58;1134917;-77
2022/01/04 05:09:32;;;;;;;6.47;2.77;;;;;;;5.37;100.00;99153.98;5098936;56;1134829;-73
2022/01/04 05:14:39;;;;;;;7.10;2.67;;;;;;;5.39;100.00;99149.94;5228264;56;1134825;-81
2022/01/04 05:19:45;;;;;;;8.97;3.10;;;;;;;5.36;100.00;99137.06;5190510;56;1134844;-71
2022/01/04 05:24:50;;;;;;;7.50;3.17;;;;;;;5.36;100.00;99134.44;5086966;57;1134906;-79
2022/01/04 05:29:56;;;;;;;6.87;2.53;;;;;;;5.36;100.00;99131.34;5073775;57;1134804;-78
2022/01/04 05:35:03;;;;;;;5.43;2.50;;;;;;;5.38;100.00;99130.75;5122589;57;1135250;-75
2022/01/04 05:40:10;;;;;;;6.30;2.73;;;;;;;5.37;100.00;99123.84;5102090;57;1134798;-81
2022/01/04 05:45:16;;;;;;;7.33;2.73;;;;;;;5.36;100.00;99120.02;5080931;57;1134818;-78
2022/01/04 05:50:22;;;;;;;4.37;2.73;;;;;;;5.38;100.00;99117.64;5076017;57;1135157;-77
2022/01/04 05:55:28;;;;;;;6.27;2.50;;;;;;;5.41;100.00;99104.30;5140183;57;1133004;-80
2022/01/04 06:00:34;;;;;;;4.50;2.27;;;;;;;5.44;100.00;99097.98;5140251;57;1132641;-71
2022/01/04 06:05:41;;;;;;;9.45;2.42;;;;;;;5.43;100.00;99095.00;5089931;57;1137071;-73
2022/01/04 06:10:51;;;;;;;11.93;3.17;;;;;;;5.45;100.00;99094.41;5047375;58;1137259;-76
2022/01/04 06:15:55;;;;;;;7.40;3.80;;;;;;;5.50;100.00;99090.95;5057215;58;1138819;-73
2022/01/04 06:21:03;;;;;;;10.20;3.67;;;;;;;5.51;100.00;99079.01;5018899;58;1136876;-74
2022/01/04 06:26:09;;;;;;;6.47;3.07;;;;;;;5.51;100.00;99065.06;5056794;58;1137125;-71
2022/01/04 06:31:15;;;;;;;10.10;5.27;;;;;;;5.53;100.00;99054.81;5134467;57;1136945;-75
2022/01/04 06:36:21;;;;;;;9.73;3.57;;;;;;;5.56;100.00;99056.36;5135710;57;1139214;-79
2022/01/04 06:41:27;;;;;;;7.67;4.50;;;;;;;5.59;100.00;99061.37;5135622;57;1137173;-81
2022/01/04 06:46:32;;;;;;;6.57;3.90;;;;;;;5.58;100.00;99064.94;5128612;57;1136864;-72
2022/01/04 06:51:39;;;;;;;13.07;5.57;;;;;;;5.56;100.00;99056.36;5124729;57;1136920;-73
2022/01/04 06:56:46;;;;;;;6.03;3.90;;;;;;;5.56;100.00;99065.54;5058770;57;1139170;-75
2022/01/04 07:01:52;;;;;;;10.97;4.33;;;;;;;5.59;100.00;99052.19;5058572;57;1137110;-77
2022/01/04 07:06:57;;;;;;;17.80;7.33;;;;;;;5.61;100.00;99046.34;5126884;57;1139025;-82
2022/01/04 07:12:04;;;;;;;13.83;6.40;;;;;;;5.63;100.00;99038.71;5205582;56;1139019;-79
2022/01/04 07:17:09;;;;;;;10.60;5.70;;;;;;;5.64;100.00;99027.27;5227828;56;1139003;-73
2022/01/04 07:22:15;;;;;;;9.87;5.13;;;;;;;5.65;100.00;99018.92;5227715;56;1139044;-73
2022/01/04 07:27:20;;;;;;;17.10;7.27;;;;;;;5.64;100.00;99002.83;5227854;56;1137189;-81
2022/01/04 07:32:26;;;;;;;13.95;6.87;;;;;;;5.63;100.00;98995.44;5227772;56;1139193;-75
2022/01/04 07:37:31;;;;;;;36.50;13.57;;;;;;;5.61;100.00;98986.02;5227862;56;1137112;-78
2022/01/04 07:42:37;;;;;;;50.17;19.93;;;;;;;5.62;100.00;98968.02;5142203;56;1141203;-78
2022/01/04 07:47:45;;;;;;;21.60;9.78;;;;;;;5.67;100.00;98954.03;5142582;57;1141036;-75
2022/01/04 07:52:51;;;;;;;20.17;11.47;;;;;;;5.73;100.00;98947.45;5142758;57;1139050;-75
2022/01/04 07:57:57;;;;;;;14.17;8.83;;;;;;;5.71;100.00;98936.26;5143302;57;1141170;-78
2022/01/04 08:03:06;;;;;;;11.03;7.73;;;;;;;5.69;100.00;98953.91;5143709;57;1138949;-81
2022/01/04 08:08:10;;;;;;;21.67;8.87;;;;;;;5.64;100.00;98956.93;5138834;57;1138974;-79
2022/01/04 08:13:16;;;;;;;15.70;9.53;;;;;;;5.60;100.00;98941.92;5171461;56;1138935;-80
2022/01/04 08:18:22;;;;;;;19.17;9.20;;;;;;;5.61;100.00;98939.66;5108422;56;1138997;-80
2022/01/04 08:23:28;;;;;;;16.50;8.90;;;;;;;5.63;100.00;98939.53;5093974;57;1138895;-77
2022/01/04 08:28:34;;;;;;;21.53;8.40;;;;;;;5.65;100.00;98942.86;5083775;57;1139040;-76
2022/01/04 08:33:40;;;;;;;12.40;7.67;;;;;;;5.66;100.00;98943.19;5129510;57;1139074;-70
2022/01/04 08:38:45;;;;;;;9.40;5.90;;;;;;;5.68;100.00;98929.95;5113381;57;1139001;-78
2022/01/04 08:43:52;;;;;;;10.33;7.80;;;;;;;5.72;100.00;98920.88;5082004;57;1137129;-72
2022/01/04 08:48:57;;;;;;;12.57;7.60;;;;;;;5.75;100.00;98928.49;5067994;57;1139054;-68
2022/01/04 08:54:03;;;;;;;11.47;7.23;;;;;;;5.74;100.00;98922.89;5128109;57;1139200;-76
2022/01/04 08:59:10;;;;;;;11.20;5.27;;;;;;;5.76;100.00;98920.50;5129422;57;1138988;-69
2022/01/04 09:04:16;;;;;;;12.37;6.13;;;;;;;5.79;100.00;98905.83;5129166;57;1139149;-68
2022/01/04 09:09:22;;;;;;;18.73;7.47;;;;;;;5.84;100.00;98898.38;5112527;57;1139022;-71
2022/01/04 09:14:41;;;;;;;8.00;5.20;;;;;;;5.88;100.00;98895.89;5046500;58;1139025;-73
2022/01/04 09:19:36;;;;;;;19.00;9.43;;;;;;;5.94;100.00;98893.24;5037050;57;1137046;-78
2022/01/04 09:24:41;;;;;;;19.67;8.87;;;;;;;5.93;100.00;98883.23;5035689;57;1137000;-76
2022/01/04 09:29:47;;;;;;;14.27;6.67;;;;;;;5.93;100.00;98872.73;5036127;57;1136614;-75
2022/01/04 09:34:52;;;;;;;22.23;12.57;;;;;;;5.95;100.00;98869.50;5035543;57;1136959;-71
2022/01/04 09:39:59;;;;;;;16.63;8.17;;;;;;;6.01;100.00;98869.44;5045251;57;1139113;-76
2022/01/04 09:45:06;;;;;;;19.53;10.20;;;;;;;6.04;100.00;98848.19;5115423;57;1137259;-73
2022/01/04 09:50:12;;;;;;;7.77;5.07;;;;;;;6.07;100.00;98838.75;5115404;57;1139027;-70
2022/01/04 09:55:19;;;;;;;26.77;12.93;;;;;;;6.11;100.00;98842.75;5081717;57;1134463;-69
2022/01/04 10:00:24;;;;;;;15.07;7.07;;;;;;;6.15;100.00;98828.89;5117940;57;1139347;-70
2022/01/04 10:05:30;;;;;;;7.62;5.08;;;;;;;6.21;100.00;98816.08;5113539;57;1136958;-69
2022/01/04 10:10:38;;;;;;;11.40;6.37;;;;;;;6.22;100.00;98815.59;5117531;57;1135167;-68
2022/01/04 10:15:56;;;;;;;13.10;6.43;;;;;;;6.23;100.00;98816.78;5129464;57;1136969;-69
2022/01/04 10:21:05;;;;;;;;;;;;;;;6.27;100.00;98815.52;5132490;57;1136902;-67
2022/01/04 10:26:10;;;;;;;14.40;7.53;;;;;;;6.33;100.00;98796.63;5098416;57;972115;-69
2022/01/04 10:31:19;;;;;;;27.97;11.87;;;;;;;6.40;100.00;98786.42;5046957;58;1135080;-68
2022/01/04 10:36:25;;;;;;;17.13;8.10;;;;;;;6.47;100.00;98781.45;5079549;57;1138995;-68
2022/01/04 10:41:31;;;;;;;22.80;9.43;;;;;;;6.48;100.00;98770.81;5081964;57;1134837;-70
2022/01/04 10:46:45;;;;;;;16.07;7.70;;;;;;;6.51;100.00;98767.92;5059721;57;1256993;-68
2022/01/04 10:52:09;;;;;;;17.85;10.13;;;;;;;6.56;100.00;98764.41;5048705;57;1139062;-68
2022/01/04 10:57:15;;;;;;;32.73;17.23;;;;;;;6.59;100.00;98748.35;5094745;57;1141102;-78
2022/01/04 11:02:34;;;;;;;25.17;10.77;;;;;;;6.66;100.00;98733.72;5123750;57;1141104;-69
2022/01/04 11:08:03;;;;;;;9.23;5.77;;;;;;;6.66;100.00;98736.34;5090159;57;1141147;-69
2022/01/04 11:13:09;;;;;;;15.43;8.03;;;;;;;6.66;100.00;98728.95;5053250;57;1137399;-72
2022/01/04 11:18:15;;;;;;;15.60;8.07;;;;;;;6.67;100.00;98710.91;5046413;58;1139199;-69
2022/01/04 11:23:27;;;;;;;15.27;8.97;;;;;;;6.69;100.00;98690.10;5065107;57;1139014;-71
2022/01/04 11:28:35;;;;;;;14.85;9.38;;;;;;;6.73;100.00;98673.55;5089648;57;1138943;-68
2022/01/04 11:34:10;;;;;;;17.17;10.57;;;;;;;6.74;100.00;98654.68;5083985;57;1139099;-69
2022/01/04 11:39:32;;;;;;;13.83;7.23;;;;;;;6.74;100.00;98649.42;5058194;57;1140845;-71
2022/01/04 11:44:48;;;;;;;15.67;7.37;;;;;;;6.74;100.00;98629.23;5140789;57;1139101;-73
2022/01/04 11:50:16;;;;;;;16.90;8.00;;;;;;;6.76;100.00;98612.85;5102542;57;1139397;-74
2022/01/04 11:55:29;;;;;;;13.00;6.80;;;;;;;6.78;100.00;98595.64;5142445;57;1136910;-77
2022/01/04 12:00:38;;;;;;;10.73;6.50;;;;;;;6.81;100.00;98579.59;5141474;56;1136762;-77
2022/01/04 12:06:03;;;;;;;12.87;7.90;;;;;;;6.82;100.00;98573.38;5141892;57;1137035;-72
2022/01/04 12:11:29;;;;;;;45.70;13.40;;;;;;;6.89;100.00;98573.13;5139429;57;1136923;-77
2022/01/04 12:16:43;;;;;;;34.07;10.27;;;;;;;6.89;100.00;98571.81;5134855;57;1139056;-76
2022/01/04 12:21:53;;;;;;;45.97;15.50;;;;;;;6.89;100.00;98566.55;5102308;57;1136849;-77
2022/01/04 12:27:10;;;;;;;23.17;9.57;;;;;;;6.90;100.00;98568.22;5135862;57;1141044;-74
2022/01/04 12:32:24;;;;;;;26.53;11.33;;;;;;;6.94;100.00;98564.34;5138497;57;1138827;-70
2022/01/04 12:37:30;;;;;;;13.33;9.67;;;;;;;6.97;100.00;98559.63;5141577;57;1141007;-71
2022/01/04 12:42:36;;;;;;;17.13;11.93;;;;;;;6.94;100.00;98549.89;5065120;57;1139000;-73
2022/01/04 12:47:46;;;;;;;52.00;24.00;;;;;;;6.95;100.00;98544.48;5093633;57;1141063;-69
2022/01/04 12:52:52;;;;;;;60.17;18.63;;;;;;;7.01;100.00;98522.06;5141392;57;1141010;-74
2022/01/04 12:57:58;;;;;;;102.97;28.27;;;;;;;7.07;100.00;98510.95;5132891;57;1140991;-71
2022/01/04 13:03:04;;;;;;;137.37;37.60;;;;;;;7.14;100.00;98508.58;5058108;57;1143320;-71
2022/01/04 13:08:28;;;;;;;188.00;96.37;;;;;;;7.18;100.00;98496.81;5059843;57;1143207;-74
2022/01/04 13:13:34;;;;;;;95.40;41.60;;;;;;;7.18;100.00;98491.55;5078056;57;1143101;-70
2022/01/04 13:18:40;;;;;;;146.98;47.90;;;;;;;7.16;100.00;98466.72;5136806;57;1141451;-69
2022/01/04 13:23:46;;;;;;;41.28;14.40;;;;;;;7.19;100.00;98455.05;5135793;57;1143116;-71
2022/01/04 13:28:58;;;;;;;64.90;21.93;;;;;;;7.20;100.00;98454.91;5101490;57;1141334;-70
2022/01/04 13:34:04;;;;;;;54.57;20.57;;;;;;;7.22;100.00;98432.42;5067995;57;1141209;-71
2022/01/04 13:39:10;;;;;;;32.37;15.83;;;;;;;7.18;100.00;98425.83;5067852;57;1141118;-71
2022/01/04 13:44:16;;;;;;;29.10;16.13;;;;;;;7.17;100.00;98436.83;5042685;58;1141070;-72
2022/01/04 13:49:29;;;;;;;94.17;44.23;;;;;;;7.21;100.00;98427.65;5041902;58;1141106;-71
2022/01/04 13:54:36;;;;;;;209.77;91.57;;;;;;;7.24;100.00;98435.24;5041922;58;1141063;-73
2022/01/04 13:59:43;;;;;;;77.33;36.80;;;;;;;7.28;100.00;98423.46;5041921;58;1143472;-71
2022/01/04 14:04:49;;;;;;;51.63;24.47;;;;;;;7.33;100.00;98413.30;5076857;57;1141233;-72
2022/01/04 14:09:55;;;;;;;35.97;21.50;;;;;;;7.31;100.00;98415.77;5124152;57;1141248;-70
2022/01/04 14:15:06;;;;;;;125.00;46.53;;;;;;;7.29;100.00;98404.08;5128103;57;1141009;-68
2022/01/04 14:20:12;;;;;;;107.60;41.83;;;;;;;7.32;100.00;98390.64;5118690;57;1143112;-71
2022/01/04 14:25:25;;;;;;;26.57;14.73;;;;;;;7.37;100.00;98380.97;5129357;57;1143310;-72
2022/01/04 14:30:30;;;;;;;36.90;19.80;;;;;;;7.36;100.00;98382.77;5074881;57;1141046;-71
2022/01/04 14:35:39;;;;;;;41.30;20.03;;;;;;;7.37;100.00;98387.05;5054693;57;1141081;-74
2022/01/04 14:40:43;;;;;;;43.80;26.23;;;;;;;7.36;100.00;98392.45;5055395;57;1141121;-73
2022/01/04 14:45:49;;;;;;;56.08;30.85;;;;;;;7.36;100.00;98395.09;5052866;57;1139022;-73
2022/01/04 14:50:55;;;;;;;64.47;36.47;;;;;;;7.37;100.00;98394.94;4998731;57;1138968;-72
2022/01/04 14:56:05;;;;;;;88.77;49.33;;;;;;;7.35;100.00;98398.69;4915529;58;1138866;-75
2022/01/04 15:01:08;;;;;;;54.93;33.30;;;;;;;7.36;100.00;98381.45;4953288;59;1139001;-68
2022/01/04 15:06:14;;;;;;;72.27;36.90;;;;;;;7.35;100.00;98377.17;4959030;59;1139007;-72
2022/01/04 15:11:20;;;;;;;53.17;34.90;;;;;;;7.36;100.00;98365.67;4985879;59;1139236;-73
2022/01/04 15:16:28;;;;;;;70.60;38.47;;;;;;;7.44;100.00;98371.51;4977332;59;1139018;-77
2022/01/04 15:21:34;;;;;;;82.60;45.20;;;;;;;7.46;100.00;98378.77;5037551;58;1139061;-74
2022/01/04 15:26:40;;;;;;;70.77;37.87;;;;;;;7.41;100.00;98384.95;5021707;58;1138960;-71
2022/01/04 15:31:46;;;;;;;48.03;26.63;;;;;;;7.28;100.00;98389.77;4983688;58;1138976;-73
2022/01/04 15:36:52;;;;;;;45.10;26.50;;;;;;;7.17;100.00;98399.20;4974129;57;1139046;-72
2022/01/04 15:41:58;;;;;;;28.27;18.17;;;;;;;7.16;100.00;98394.91;4974586;57;1139198;-74
2022/01/04 15:47:04;;;;;;;38.10;22.03;;;;;;;7.18;100.00;98392.97;4964610;57;1139193;-72
2022/01/04 15:52:12;;;;;;;46.27;16.67;;;;;;;7.09;100.00;98382.02;4931233;57;1139099;-72
2022/01/04 15:57:18;;;;;;;31.57;17.37;;;;;;;6.97;100.00;98386.67;4925759;58;1139247;-74
2022/01/04 16:02:24;;;;;;;31.90;17.73;;;;;;;6.97;100.00;98386.67;4962631;58;1139067;-74
2022/01/04 16:07:29;;;;;;;58.33;26.97;;;;;;;7.00;100.00;98373.23;4960716;57;1139108;-71
2022/01/04 16:12:36;;;;;;;46.97;22.90;;;;;;;6.97;100.00;98377.47;4992152;57;1136968;-73
2022/01/04 16:23:06;;;;;;;41.23;24.17;;;;;;;6.87;100.00;98373.60;4943235;57;1141293;-76
2022/01/04 16:28:12;;;;;;;44.03;23.93;;;;;;;6.79;100.00;98360.36;5014342;57;1141072;-75
2022/01/04 16:33:18;;;;;;;102.23;39.20;;;;;;;6.73;100.00;98367.50;4971574;58;1141409;-75
2022/01/04 16:38:24;;;;;;;64.67;29.60;;;;;;;6.69;100.00;98365.69;4976222;58;1143178;-71
2022/01/04 16:43:30;;;;;;;67.27;28.60;;;;;;;6.67;100.00;98361.55;4969164;57;1141047;-75
2022/01/04 16:48:36;;;;;;;65.27;28.47;;;;;;;6.63;100.00;98374.62;4954777;58;1141351;-73
2022/01/04 16:53:43;;;;;;;47.33;24.47;;;;;;;6.58;100.00;98368.48;4968409;58;1141228;-71
2022/01/04 16:58:50;;;;;;;23.37;15.73;;;;;;;6.56;100.00;98356.50;5018369;58;1141347;-74
2022/01/04 17:03:56;;;;;;;22.77;14.53;;;;;;;6.45;100.00;98351.42;5018336;58;1141297;-71
2022/01/04 17:09:02;;;;;;;25.60;14.43;;;;;;;6.43;100.00;98367.32;5008148;58;1141039;-75
2022/01/04 17:19:31;;;;;;;21.37;14.17;;;;;;;6.36;100.00;98345.27;4984061;58;1141156;-75
2022/01/04 17:24:37;;;;;;;22.53;15.20;;;;;;;6.38;100.00;98351.69;4948042;57;1141127;-72
2022/01/04 17:29:43;;;;;;;178.97;97.53;;;;;;;6.31;100.00;98356.19;4961099;57;1141085;-78
2022/01/04 17:34:49;;;;;;;366.80;218.33;;;;;;;6.25;100.00;98352.02;4958083;57;1143146;-81
2022/01/04 17:39:55;;;;;;;32.23;18.57;;;;;;;6.20;100.00;98352.93;4970070;57;1145152;-78
2022/01/04 17:45:01;;;;;;;36.83;24.57;;;;;;;6.16;100.00;98362.05;4959707;58;1141103;-77
2022/01/04 17:50:07;;;;;;;25.63;14.97;;;;;;;6.14;100.00;98362.68;4955918;57;1141096;-73
2022/01/04 17:55:13;;;;;;;27.40;12.13;;;;;;;6.10;100.00;98354.77;4979647;57;1141054;-80
2022/01/04 18:00:19;;;;;;;28.30;12.37;;;;;;;6.08;100.00;98351.46;4959684;58;1141175;-79
2022/01/04 18:05:26;;;;;;;88.10;26.70;;;;;;;6.11;100.00;98358.54;4945575;57;1141176;-74
2022/01/04 18:10:31;;;;;;;75.10;23.53;;;;;;;6.09;100.00;98347.39;4948292;57;1141043;-78
2022/01/04 18:15:37;;;;;;;23.80;10.93;;;;;;;6.07;100.00;98365.06;4951997;58;1141413;-77
2022/01/04 18:20:43;;;;;;;39.50;14.53;;;;;;;6.05;100.00;98373.56;4976538;58;1141044;-79
2022/01/04 18:25:49;;;;;;;18.13;8.07;;;;;;;5.99;100.00;98380.20;4948177;58;1141675;-76
2022/01/04 18:30:55;;;;;;;49.23;16.60;;;;;;;5.96;100.00;98387.03;4917687;59;1139172;-82
2022/01/04 18:36:01;;;;;;;22.13;9.67;;;;;;;5.92;100.00;98384.86;4914163;58;1141101;-77
2022/01/04 18:41:08;;;;;;;20.67;9.67;;;;;;;5.89;100.00;98400.87;4916925;58;1139247;-77
2022/01/04 18:46:19;;;;;;;15.67;7.57;;;;;;;5.84;100.00;98400.42;4965227;58;1138949;-78
2022/01/04 18:51:25;;;;;;;13.83;6.57;;;;;;;5.81;100.00;98403.33;5015115;57;1139265;-82
2022/01/04 18:56:30;;;;;;;13.23;6.70;;;;;;;5.80;100.00;98418.75;4948513;57;1139325;-80
2022/01/04 19:01:36;;;;;;;12.87;8.03;;;;;;;5.76;100.00;98409.02;4920093;57;1139061;-79
2022/01/04 19:06:42;;;;;;;91.23;27.73;;;;;;;5.78;100.00;98390.52;4990029;57;1137119;-71
2022/01/04 19:11:48;;;;;;;77.13;20.60;;;;;;;5.80;100.00;98410.88;5086143;56;1138955;-74
2022/01/04 19:16:54;;;;;;;56.77;18.23;;;;;;;5.78;100.00;98407.56;4972012;57;1139060;-72
2022/01/04 19:22:01;;;;;;;39.60;14.77;;;;;;;5.76;100.00;98410.33;4988997;57;1139181;-84
2022/01/04 19:27:07;;;;;;;32.70;14.37;;;;;;;5.73;100.00;98424.20;4929282;57;1139132;-84
2022/01/04 19:32:31;;;;;;;25.40;10.97;;;;;;;5.71;100.00;98426.95;4941496;58;1139003;-78
2022/01/04 19:37:26;;;;;;;92.73;53.83;;;;;;;5.72;100.00;98403.70;4924880;58;1139194;-79
2022/01/04 19:42:32;;;;;;;41.43;18.80;;;;;;;5.73;100.00;98410.60;4948789;57;1139073;-72
2022/01/04 19:47:38;;;;;;;66.60;43.20;;;;;;;5.70;100.00;98403.01;4993983;57;1139056;-75
2022/01/04 19:52:44;;;;;;;58.43;26.87;;;;;;;5.68;100.00;98425.92;5033829;57;1138959;-73
2022/01/04 19:57:50;;;;;;;37.50;19.33;;;;;;;5.64;100.00;98429.81;4962926;58;1139054;-73
2022/01/04 20:02:56;;;;;;;44.05;18.77;;;;;;;5.61;100.00;98439.25;4943733;57;1139059;-72
2022/01/04 20:08:02;;;;;;;55.00;23.03;;;;;;;5.56;100.00;98442.77;4957924;58;1139094;-74
2022/01/04 20:13:08;;;;;;;145.07;106.50;;;;;;;5.51;100.00;98447.11;4991325;58;1139078;-72
2022/01/04 20:18:15;;;;;;;36.63;14.60;;;;;;;5.48;100.00;98459.69;4983199;58;1143178;-70
2022/01/04 20:23:21;;;;;;;11.27;6.57;;;;;;;5.46;100.00;98470.30;4992664;58;1139110;-74
2022/01/04 20:28:27;;;;;;;23.07;8.60;;;;;;;5.41;100.00;98472.98;4920932;58;1134945;-73
2022/01/04 20:33:34;;;;;;;22.27;10.80;;;;;;;5.41;100.00;98474.28;5055808;58;1134963;-71
2022/01/04 20:38:39;;;;;;;15.50;8.50;;;;;;;5.44;100.00;98473.54;5065132;58;1140986;-71
2022/01/04 20:43:45;;;;;;;18.63;7.60;;;;;;;5.44;100.00;98460.91;5033358;58;1138456;-74
2022/01/04 20:48:51;;;;;;;14.40;6.73;;;;;;;5.44;100.00;98465.67;5004532;58;1139164;-75
2022/01/04 20:53:56;;;;;;;17.60;8.30;;;;;;;5.42;100.00;98453.19;5000682;58;1139427;-74
2022/01/04 20:59:04;;;;;;;23.23;8.77;;;;;;;5.44;100.00;98466.16;5000256;59;1139023;-73
2022/01/04 21:04:09;;;;;;;27.60;12.07;;;;;;;5.46;100.00;98473.41;4979267;58;1139042;-71
2022/01/04 21:09:15;;;;;;;16.30;9.53;;;;;;;5.48;100.00;98475.41;4973043;58;1141311;-73
2022/01/04 21:14:21;;;;;;;20.40;9.80;;;;;;;5.50;100.00;98470.86;4972445;58;1139000;-68
2022/01/04 21:19:26;;;;;;;20.57;8.30;;;;;;;5.52;100.00;98479.39;4959599;58;1138984;-71
2022/01/04 21:24:32;;;;;;;16.60;8.23;;;;;;;5.52;100.00;98487.26;4972369;58;1139010;-75
2022/01/04 21:29:39;;;;;;;30.57;17.90;;;;;;;5.50;100.00;98493.95;4971415;58;1139001;-73
2022/01/04 21:34:45;;;;;;;137.43;44.60;;;;;;;5.49;100.00;98488.87;4856174;60;1141116;-73
2022/01/04 21:39:51;;;;;;;40.03;13.13;;;;;;;5.52;100.00;98493.81;4963291;59;1143203;-74
2022/01/04 21:44:56;;;;;;;26.00;10.23;;;;;;;5.54;100.00;98483.55;4917603;59;1141415;-74
2022/01/04 21:50:04;;;;;;;19.17;9.07;;;;;;;5.56;100.00;98488.17;4803635;60;1141130;-73
2022/01/04 21:55:12;;;;;;;22.07;9.37;;;;;;;5.59;100.00;98493.14;4845016;59;1139041;-72
2022/01/04 22:00:19;;;;;;;15.63;9.28;;;;;;;5.63;100.00;98500.27;4962133;59;1139082;-72
2022/01/04 22:05:25;;;;;;;18.00;10.97;;;;;;;5.64;100.00;98505.38;4815613;60;1139127;-74
2022/01/04 22:10:31;;;;;;;20.07;10.13;;;;;;;5.69;100.00;98511.98;4841107;60;1140941;-73
2022/01/04 22:15:37;;;;;;;25.97;10.72;;;;;;;5.72;100.00;98523.03;4917475;59;1140982;-74
2022/01/04 22:20:47;;;;;;;15.07;9.03;;;;;;;5.75;100.00;98521.94;4917353;60;1141341;-70
2022/01/04 22:25:55;;;;;;;13.03;8.17;;;;;;;5.77;100.00;98521.31;4914679;60;1138964;-74
2022/01/04 22:31:00;;;;;;;19.47;9.50;;;;;;;5.80;100.00;98531.55;4907942;60;1139363;-73
2022/01/04 22:36:06;;;;;;;30.53;13.70;;;;;;;5.78;100.00;98529.05;4890628;60;1138972;-74
2022/01/04 22:41:12;;;;;;;27.23;10.27;;;;;;;5.81;100.00;98534.48;4888731;60;1141049;-71
2022/01/04 22:46:17;;;;;;;19.53;9.83;;;;;;;5.81;100.00;98534.48;4889006;60;1141062;-73
2022/01/04 22:51:23;;;;;;;88.90;54.40;;;;;;;5.84;100.00;98546.84;4888816;60;1138402;-72
2022/01/04 22:56:32;;;;;;;15.55;10.63;;;;;;;5.82;100.00;98551.88;4888815;60;1141118;-72
2022/01/04 23:01:40;;;;;;;81.53;22.23;;;;;;;5.84;100.00;98565.69;4888976;60;1141165;-74
2022/01/04 23:06:46;;;;;;;23.37;10.97;;;;;;;5.84;100.00;98565.69;4889062;59;1141366;-71
2022/01/04 23:11:52;;;;;;;21.37;11.30;;;;;;;5.84;100.00;98563.06;4898193;59;1141309;-72
2022/01/04 23:16:58;;;;;;;19.07;10.07;;;;;;;5.84;100.00;98573.08;4886923;59;1141111;-70
2022/01/04 23:22:04;;;;;;;15.73;9.77;;;;;;;5.83;100.00;98579.77;4916648;60;1141106;-70
2022/01/04 23:27:09;;;;;;;15.57;9.07;;;;;;;5.83;100.00;98571.90;4831894;61;1138993;-71